Blairsville, Indiana
Current Conditions -  °F | °C
As of 6:54 AM on Friday 24 Oct 2014 (Local Time) from KEVV Reporting Station
Overcast Overcast  
Wind Chill: 49°   Ceiling: 3200
Heat Index: 49°   Visibility: 8mi
Dew Point: 46°   Wind: 0mph
Humidity: 90%   Direction: NA
Pressure: 30.13"   Gusts: NA
Location:  38.0787°N, 87.7717°W
Report Text: KEVV 241154Z 00000KT 8SM OVC032 09/08 A3013 RMK AO2 SLP204 T00940078 10094 20056 53003 $
Loading
Personal Weather Stations






























Interactive Weather Map
Tropical Storm Tracking
New forecast layout! Learn more

10-Day Weather Forecast

Advertisements
Track Severe Weather on mobile